Lady Caroline — WDE6297 — position and weather

sailwx.info

Track history (hours):
 
Tides and Currents Weather Stations Pressure Air Temp Water Temp Dewpoint Dewpoint Depression Visibility Wind Speed Wind Dir Waves Ship Positions

Lady Caroline

Owner: Second Lady Caroline, LLC, Beverly Hills, CA. More information available from US FCC via Universal Licensing System.

Last reported at 2017-Apr-21 00:58 UTC. Time now 2017-Apr-24 05:27 UTC.
Position N 26°08' W 080°07'.

Length 33 m; draft 2.3 m.

Type: Pleasure craft. MMSI: 367378430.

Date/timePositionNaut miles runAvg speedWind from/ knotsBaromVisibWave heightAir tempDewpointWater temp
2017-Apr-21 00:58N 26°08' W 080°07'0 0.6
2017-Apr-21 00:30N 26°08' W 080°07'1 2.0
2017-Apr-21 00:00N 26°07' W 080°07'0 0.7
2017-Apr-20 23:30N 26°07' W 080°06'0 0.0
2017-Apr-20 23:00N 26°07' W 080°06'0 0.0
2017-Apr-20 22:31N 26°07' W 080°06'0 0.0
2017-Apr-20 22:00N 26°07' W 080°06'0 0.0
2017-Apr-20 21:30N 26°07' W 080°06'0 0.0
2017-Apr-20 20:57N 26°07' W 080°06'0 0.0
2017-Apr-20 20:30N 26°07' W 080°06'0 0.0
2017-Apr-20 20:00N 26°07' W 080°06'0 0.0
2017-Apr-20 19:30N 26°07' W 080°06'0 0.0
2017-Apr-20 19:00N 26°07' W 080°06'0 0.0
2017-Apr-20 18:28N 26°07' W 080°06'0 0.0
2017-Apr-20 17:59N 26°07' W 080°06'0 0.0
2017-Apr-20 17:30N 26°07' W 080°06'0 0.0
2017-Apr-20 17:00N 26°07' W 080°06'0 0.0
2017-Apr-20 16:30N 26°07' W 080°06'1 1.9
2017-Apr-20 16:00N 26°08' W 080°06'1 1.6
2017-Apr-20 15:30N 26°08' W 080°07'0 0.0
2017-Apr-20 15:00N 26°08' W 080°07'0 0.0
2017-Apr-20 14:30N 26°08' W 080°07'0 0.0
2017-Apr-18 13:20N 26°08' W 080°07'0 0.4
2017-Apr-18 13:00N 26°08' W 080°07'1 2.1
2017-Apr-18 12:30N 26°07' W 080°07'1 2.9
2017-Apr-18 12:00N 26°06' W 080°06'3 6.9
2017-Apr-18 11:30N 26°03' W 080°05'4 8.0
2017-Apr-18 11:01N 25°59' W 080°04'4 8.1
2017-Apr-18 10:30N 25°54' W 080°04'4 7.8
2017-Apr-18 10:00N 25°51' W 080°04'4 7.9
2017-Apr-18 09:30N 25°47' W 080°04'4 7.6
2017-Apr-18 09:01N 25°43' W 080°04'4 8.1
2017-Apr-18 08:30N 25°39' W 080°04'4 7.9
2017-Apr-18 08:00N 25°35' W 080°04'4 8.1
2017-Apr-18 07:30N 25°31' W 080°05'4 8.3
2017-Apr-18 07:00N 25°27' W 080°06'  
Track history (hours):
 
Tides and Currents Weather Stations Pressure Air Temp Water Temp Dewpoint Dewpoint Depression Visibility Wind Speed Wind Dir Waves Ship Positions

Lady Caroline

Owner: Second Lady Caroline, LLC, Beverly Hills, CA. More information available from US FCC via Universal Licensing System.

Last reported at 2017-Apr-21 00:58 UTC. Time now 2017-Apr-24 05:27 UTC.
Position N 26°08' W 080°07'.

Length 33 m; draft 2.3 m.

Type: Pleasure craft. MMSI: 367378430.

Date/timePositionNaut miles runAvg speedWind from/ knotsBaromVisibWave heightAir tempDewpointWater temp
2017-Apr-21 00:58N 26°08' W 080°07'0 0.6
2017-Apr-21 00:30N 26°08' W 080°07'1 2.0
2017-Apr-21 00:00N 26°07' W 080°07'0 0.7
2017-Apr-20 23:30N 26°07' W 080°06'0 0.0
2017-Apr-20 23:00N 26°07' W 080°06'0 0.0
2017-Apr-20 22:31N 26°07' W 080°06'0 0.0
2017-Apr-20 22:00N 26°07' W 080°06'0 0.0
2017-Apr-20 21:30N 26°07' W 080°06'0 0.0
2017-Apr-20 20:57N 26°07' W 080°06'0 0.0
2017-Apr-20 20:30N 26°07' W 080°06'0 0.0
2017-Apr-20 20:00N 26°07' W 080°06'0 0.0
2017-Apr-20 19:30N 26°07' W 080°06'0 0.0
2017-Apr-20 19:00N 26°07' W 080°06'0 0.0
2017-Apr-20 18:28N 26°07' W 080°06'0 0.0
2017-Apr-20 17:59N 26°07' W 080°06'0 0.0
2017-Apr-20 17:30N 26°07' W 080°06'0 0.0
2017-Apr-20 17:00N 26°07' W 080°06'0 0.0
2017-Apr-20 16:30N 26°07' W 080°06'1 1.9
2017-Apr-20 16:00N 26°08' W 080°06'1 1.6
2017-Apr-20 15:30N 26°08' W 080°07'0 0.0
2017-Apr-20 15:00N 26°08' W 080°07'0 0.0
2017-Apr-20 14:30N 26°08' W 080°07'0 0.0
2017-Apr-18 13:20N 26°08' W 080°07'0 0.4
2017-Apr-18 13:00N 26°08' W 080°07'1 2.1
2017-Apr-18 12:30N 26°07' W 080°07'1 2.9
2017-Apr-18 12:00N 26°06' W 080°06'3 6.9
2017-Apr-18 11:30N 26°03' W 080°05'4 8.0
2017-Apr-18 11:01N 25°59' W 080°04'4 8.1
2017-Apr-18 10:30N 25°54' W 080°04'4 7.8
2017-Apr-18 10:00N 25°51' W 080°04'4 7.9
2017-Apr-18 09:30N 25°47' W 080°04'4 7.6
2017-Apr-18 09:01N 25°43' W 080°04'4 8.1
2017-Apr-18 08:30N 25°39' W 080°04'4 7.9
2017-Apr-18 08:00N 25°35' W 080°04'4 8.1
2017-Apr-18 07:30N 25°31' W 080°05'4 8.3
2017-Apr-18 07:00N 25°27' W 080°06'  

Dump ship's entire track history